sensor_id;sensor_type;location;lat;lon;timestamp;P1;durP1;ratioP1;P2;durP2;ratioP2
677;SDS011;321;48.814;9.132;2023-02-12T00:01:40;3.17;;;2.30;;
677;SDS011;321;48.814;9.132;2023-02-12T00:04:06;2.33;;;2.07;;
677;SDS011;321;48.814;9.132;2023-02-12T00:06:32;3.70;;;3.40;;
677;SDS011;321;48.814;9.132;2023-02-12T00:08:57;2.40;;;2.20;;
677;SDS011;321;48.814;9.132;2023-02-12T00:11:24;3.78;;;2.72;;
677;SDS011;321;48.814;9.132;2023-02-12T00:13:51;2.55;;;2.35;;
677;SDS011;321;48.814;9.132;2023-02-12T00:16:18;3.55;;;3.35;;
677;SDS011;321;48.814;9.132;2023-02-12T00:18:46;1.83;;;1.60;;
677;SDS011;321;48.814;9.132;2023-02-12T00:21:12;3.50;;;3.22;;
677;SDS011;321;48.814;9.132;2023-02-12T00:23:38;5.03;;;4.53;;
677;SDS011;321;48.814;9.132;2023-02-12T00:26:12;6.38;;;3.83;;
677;SDS011;321;48.814;9.132;2023-02-12T00:28:40;6.80;;;5.80;;
677;SDS011;321;48.814;9.132;2023-02-12T00:31:19;5.83;;;5.23;;
677;SDS011;321;48.814;9.132;2023-02-12T00:33:47;5.65;;;4.45;;
677;SDS011;321;48.814;9.132;2023-02-12T00:36:14;5.27;;;4.87;;
677;SDS011;321;48.814;9.132;2023-02-12T00:38:45;6.10;;;5.57;;
677;SDS011;321;48.814;9.132;2023-02-12T00:41:11;7.78;;;6.28;;
677;SDS011;321;48.814;9.132;2023-02-12T00:43:37;4.85;;;4.50;;
677;SDS011;321;48.814;9.132;2023-02-12T00:46:03;6.20;;;4.67;;
677;SDS011;321;48.814;9.132;2023-02-12T00:48:30;9.45;;;4.78;;
677;SDS011;321;48.814;9.132;2023-02-12T00:50:57;5.65;;;4.60;;
677;SDS011;321;48.814;9.132;2023-02-12T00:53:23;7.90;;;5.13;;
677;SDS011;321;48.814;9.132;2023-02-12T00:55:48;4.87;;;4.37;;
677;SDS011;321;48.814;9.132;2023-02-12T00:58:14;7.70;;;4.00;;
677;SDS011;321;48.814;9.132;2023-02-12T01:00:41;6.78;;;4.82;;
677;SDS011;321;48.814;9.132;2023-02-12T01:03:06;8.63;;;5.70;;
677;SDS011;321;48.814;9.132;2023-02-12T01:05:32;8.10;;;3.77;;
677;SDS011;321;48.814;9.132;2023-02-12T01:07:58;4.67;;;4.27;;
677;SDS011;321;48.814;9.132;2023-02-12T01:10:24;3.20;;;2.53;;
677;SDS011;321;48.814;9.132;2023-02-12T01:12:50;3.23;;;2.70;;
677;SDS011;321;48.814;9.132;2023-02-12T01:15:16;3.67;;;2.87;;
677;SDS011;321;48.814;9.132;2023-02-12T01:17:42;4.28;;;1.90;;
677;SDS011;321;48.814;9.132;2023-02-12T01:20:09;2.10;;;1.90;;
677;SDS011;321;48.814;9.132;2023-02-12T01:22:36;3.28;;;3.08;;
677;SDS011;321;48.814;9.132;2023-02-12T01:25:03;3.85;;;2.88;;
677;SDS011;321;48.814;9.132;2023-02-12T01:27:30;3.88;;;3.05;;
677;SDS011;321;48.814;9.132;2023-02-12T01:29:56;6.07;;;3.90;;
677;SDS011;321;48.814;9.132;2023-02-12T01:32:21;1.80;;;1.70;;
677;SDS011;321;48.814;9.132;2023-02-12T01:34:47;3.28;;;3.08;;
677;SDS011;321;48.814;9.132;2023-02-12T01:37:13;2.28;;;2.08;;
677;SDS011;321;48.814;9.132;2023-02-12T01:39:40;9.85;;;2.88;;
677;SDS011;321;48.814;9.132;2023-02-12T01:42:06;3.00;;;2.73;;
677;SDS011;321;48.814;9.132;2023-02-12T01:44:33;5.40;;;2.47;;
677;SDS011;321;48.814;9.132;2023-02-12T01:47:02;3.42;;;3.13;;
677;SDS011;321;48.814;9.132;2023-02-12T01:49:30;5.10;;;4.60;;
677;SDS011;321;48.814;9.132;2023-02-12T01:54:32;3.77;;;3.07;;
677;SDS011;321;48.814;9.132;2023-02-12T01:56:59;1.98;;;1.83;;
677;SDS011;321;48.814;9.132;2023-02-12T01:59:26;2.20;;;2.00;;
677;SDS011;321;48.814;9.132;2023-02-12T02:01:52;2.33;;;2.15;;
677;SDS011;321;48.814;9.132;2023-02-12T02:04:20;1.92;;;1.83;;
677;SDS011;321;48.814;9.132;2023-02-12T02:06:51;2.78;;;2.60;;
677;SDS011;321;48.814;9.132;2023-02-12T02:09:18;1.88;;;1.10;;
677;SDS011;321;48.814;9.132;2023-02-12T02:11:44;1.98;;;1.77;;
677;SDS011;321;48.814;9.132;2023-02-12T02:14:29;2.97;;;2.75;;
677;SDS011;321;48.814;9.132;2023-02-12T02:22:16;3.25;;;3.05;;
677;SDS011;321;48.814;9.132;2023-02-12T02:27:54;3.45;;;3.15;;
677;SDS011;321;48.814;9.132;2023-02-12T02:30:32;10.80;;;2.40;;
677;SDS011;321;48.814;9.132;2023-02-12T02:33:10;4.05;;;2.50;;
677;SDS011;321;48.814;9.132;2023-02-12T02:35:44;3.30;;;2.42;;
677;SDS011;321;48.814;9.132;2023-02-12T02:38:24;4.90;;;3.15;;
677;SDS011;321;48.814;9.132;2023-02-12T02:41:03;3.17;;;2.90;;
677;SDS011;321;48.814;9.132;2023-02-12T02:43:57;2.55;;;2.35;;
677;SDS011;321;48.814;9.132;2023-02-12T02:46:27;4.68;;;3.40;;
677;SDS011;321;48.814;9.132;2023-02-12T02:48:59;7.00;;;4.82;;
677;SDS011;321;48.814;9.132;2023-02-12T02:51:33;5.45;;;5.00;;
677;SDS011;321;48.814;9.132;2023-02-12T02:54:11;4.55;;;4.15;;
677;SDS011;321;48.814;9.132;2023-02-12T02:56:47;6.28;;;4.30;;
677;SDS011;321;48.814;9.132;2023-02-12T02:59:18;4.28;;;3.65;;
677;SDS011;321;48.814;9.132;2023-02-12T03:01:53;5.13;;;4.68;;
677;SDS011;321;48.814;9.132;2023-02-12T03:04:28;5.13;;;3.92;;
677;SDS011;321;48.814;9.132;2023-02-12T03:09:37;3.78;;;3.30;;
677;SDS011;321;48.814;9.132;2023-02-12T03:12:09;3.55;;;2.85;;
677;SDS011;321;48.814;9.132;2023-02-12T03:14:43;4.90;;;2.65;;
677;SDS011;321;48.814;9.132;2023-02-12T03:17:22;4.05;;;3.30;;
677;SDS011;321;48.814;9.132;2023-02-12T03:19:58;4.65;;;3.60;;
677;SDS011;321;48.814;9.132;2023-02-12T03:22:46;6.90;;;3.63;;
677;SDS011;321;48.814;9.132;2023-02-12T03:25:22;5.00;;;3.72;;
677;SDS011;321;48.814;9.132;2023-02-12T03:28:03;5.30;;;4.80;;
677;SDS011;321;48.814;9.132;2023-02-12T03:30:43;3.97;;;2.70;;
677;SDS011;321;48.814;9.132;2023-02-12T03:43:42;4.28;;;2.95;;
677;SDS011;321;48.814;9.132;2023-02-12T03:49:21;9.20;;;3.35;;
677;SDS011;321;48.814;9.132;2023-02-12T03:51:51;4.07;;;3.25;;
677;SDS011;321;48.814;9.132;2023-02-12T03:54:18;3.72;;;3.42;;
677;SDS011;321;48.814;9.132;2023-02-12T03:56:53;4.80;;;4.15;;
677;SDS011;321;48.814;9.132;2023-02-12T03:59:24;3.92;;;3.63;;
677;SDS011;321;48.814;9.132;2023-02-12T04:01:50;4.47;;;4.05;;
677;SDS011;321;48.814;9.132;2023-02-12T04:04:17;4.55;;;3.65;;
677;SDS011;321;48.814;9.132;2023-02-12T04:06:44;3.72;;;3.35;;
677;SDS011;321;48.814;9.132;2023-02-12T04:09:11;6.55;;;5.97;;
677;SDS011;321;48.814;9.132;2023-02-12T04:14:24;3.50;;;3.20;;
677;SDS011;321;48.814;9.132;2023-02-12T04:17:12;4.90;;;4.40;;
677;SDS011;321;48.814;9.132;2023-02-12T04:20:24;2.05;;;1.85;;
677;SDS011;321;48.814;9.132;2023-02-12T04:23:16;7.53;;;4.88;;
677;SDS011;321;48.814;9.132;2023-02-12T04:31:05;6.22;;;4.78;;
677;SDS011;321;48.814;9.132;2023-02-12T04:33:59;5.28;;;4.88;;
677;SDS011;321;48.814;9.132;2023-02-12T04:36:24;4.95;;;4.50;;
677;SDS011;321;48.814;9.132;2023-02-12T04:38:59;6.35;;;4.75;;
677;SDS011;321;48.814;9.132;2023-02-12T04:41:30;4.18;;;3.85;;
677;SDS011;321;48.814;9.132;2023-02-12T04:43:56;10.93;;;5.90;;
677;SDS011;321;48.814;9.132;2023-02-12T04:46:21;4.03;;;3.63;;
677;SDS011;321;48.814;9.132;2023-02-12T04:48:55;6.30;;;5.77;;
677;SDS011;321;48.814;9.132;2023-02-12T04:51:23;7.57;;;5.45;;
677;SDS011;321;48.814;9.132;2023-02-12T04:53:49;6.77;;;6.07;;
677;SDS011;321;48.814;9.132;2023-02-12T04:56:14;7.30;;;6.03;;
677;SDS011;321;48.814;9.132;2023-02-12T04:58:40;8.10;;;4.40;;
677;SDS011;321;48.814;9.132;2023-02-12T05:01:06;5.07;;;4.43;;
677;SDS011;321;48.814;9.132;2023-02-12T05:03:33;7.20;;;5.35;;
677;SDS011;321;48.814;9.132;2023-02-12T05:06:02;6.90;;;5.57;;
677;SDS011;321;48.814;9.132;2023-02-12T05:08:32;6.45;;;5.80;;
677;SDS011;321;48.814;9.132;2023-02-12T05:11:02;5.70;;;5.10;;
677;SDS011;321;48.814;9.132;2023-02-12T05:13:32;6.40;;;4.80;;
677;SDS011;321;48.814;9.132;2023-02-12T05:15:58;9.27;;;7.57;;
677;SDS011;321;48.814;9.132;2023-02-12T05:18:24;5.33;;;4.60;;
677;SDS011;321;48.814;9.132;2023-02-12T05:20:56;6.43;;;5.60;;
677;SDS011;321;48.814;9.132;2023-02-12T05:23:27;6.30;;;5.80;;
677;SDS011;321;48.814;9.132;2023-02-12T05:25:56;8.23;;;7.53;;
677;SDS011;321;48.814;9.132;2023-02-12T05:28:22;7.90;;;6.13;;
677;SDS011;321;48.814;9.132;2023-02-12T05:30:48;6.67;;;6.17;;
677;SDS011;321;48.814;9.132;2023-02-12T05:33:14;6.00;;;5.40;;
677;SDS011;321;48.814;9.132;2023-02-12T05:35:39;9.13;;;7.57;;
677;SDS011;321;48.814;9.132;2023-02-12T05:38:05;5.83;;;5.23;;
677;SDS011;321;48.814;9.132;2023-02-12T05:40:30;4.83;;;4.33;;
677;SDS011;321;48.814;9.132;2023-02-12T05:42:56;8.20;;;7.37;;
677;SDS011;321;48.814;9.132;2023-02-12T05:45:21;5.80;;;5.17;;
677;SDS011;321;48.814;9.132;2023-02-12T05:47:51;6.53;;;4.28;;
677;SDS011;321;48.814;9.132;2023-02-12T05:50:17;9.55;;;6.90;;
677;SDS011;321;48.814;9.132;2023-02-12T05:52:43;6.70;;;5.97;;
677;SDS011;321;48.814;9.132;2023-02-12T05:55:09;6.80;;;6.20;;
677;SDS011;321;48.814;9.132;2023-02-12T05:57:34;9.10;;;6.47;;
677;SDS011;321;48.814;9.132;2023-02-12T06:00:00;7.47;;;6.73;;
677;SDS011;321;48.814;9.132;2023-02-12T06:02:25;7.90;;;6.10;;
677;SDS011;321;48.814;9.132;2023-02-12T06:04:53;5.40;;;4.88;;
677;SDS011;321;48.814;9.132;2023-02-12T06:07:18;10.40;;;6.77;;
677;SDS011;321;48.814;9.132;2023-02-12T06:09:44;6.03;;;5.63;;
677;SDS011;321;48.814;9.132;2023-02-12T06:12:09;8.00;;;6.43;;
677;SDS011;321;48.814;9.132;2023-02-12T06:14:35;7.13;;;6.63;;
677;SDS011;321;48.814;9.132;2023-02-12T06:17:00;8.60;;;5.80;;
677;SDS011;321;48.814;9.132;2023-02-12T06:19:26;8.10;;;5.60;;
677;SDS011;321;48.814;9.132;2023-02-12T06:21:51;6.23;;;5.60;;
677;SDS011;321;48.814;9.132;2023-02-12T06:24:17;5.10;;;4.60;;
677;SDS011;321;48.814;9.132;2023-02-12T06:26:43;11.23;;;5.47;;
677;SDS011;321;48.814;9.132;2023-02-12T06:29:09;5.30;;;4.70;;
677;SDS011;321;48.814;9.132;2023-02-12T06:31:35;6.50;;;5.10;;
677;SDS011;321;48.814;9.132;2023-02-12T06:34:03;6.68;;;6.18;;
677;SDS011;321;48.814;9.132;2023-02-12T06:36:30;7.60;;;5.95;;
677;SDS011;321;48.814;9.132;2023-02-12T06:38:56;8.07;;;6.50;;
677;SDS011;321;48.814;9.132;2023-02-12T06:41:22;6.03;;;5.63;;
677;SDS011;321;48.814;9.132;2023-02-12T06:43:48;8.13;;;7.35;;
677;SDS011;321;48.814;9.132;2023-02-12T06:46:14;8.05;;;5.88;;
677;SDS011;321;48.814;9.132;2023-02-12T06:48:40;8.53;;;6.57;;
677;SDS011;321;48.814;9.132;2023-02-12T06:51:13;7.80;;;7.03;;
677;SDS011;321;48.814;9.132;2023-02-12T06:53:40;6.45;;;5.88;;
677;SDS011;321;48.814;9.132;2023-02-12T06:56:07;23.83;;;8.80;;
677;SDS011;321;48.814;9.132;2023-02-12T06:58:35;7.75;;;7.05;;
677;SDS011;321;48.814;9.132;2023-02-12T07:03:42;5.43;;;3.13;;
677;SDS011;321;48.814;9.132;2023-02-12T07:06:11;6.00;;;4.57;;
677;SDS011;321;48.814;9.132;2023-02-12T07:08:37;4.53;;;4.23;;
677;SDS011;321;48.814;9.132;2023-02-12T07:11:02;5.93;;;3.83;;
677;SDS011;321;48.814;9.132;2023-02-12T07:13:28;6.55;;;6.03;;
677;SDS011;321;48.814;9.132;2023-02-12T07:15:54;6.53;;;5.93;;
677;SDS011;321;48.814;9.132;2023-02-12T07:18:20;10.53;;;6.97;;
677;SDS011;321;48.814;9.132;2023-02-12T07:20:45;6.23;;;5.67;;
677;SDS011;321;48.814;9.132;2023-02-12T07:23:11;11.63;;;4.60;;
677;SDS011;321;48.814;9.132;2023-02-12T07:25:37;5.85;;;5.03;;
677;SDS011;321;48.814;9.132;2023-02-12T07:28:03;8.23;;;7.03;;
677;SDS011;321;48.814;9.132;2023-02-12T07:30:29;8.50;;;7.63;;
677;SDS011;321;48.814;9.132;2023-02-12T07:32:54;6.43;;;5.93;;
677;SDS011;321;48.814;9.132;2023-02-12T07:35:20;8.43;;;6.87;;
677;SDS011;321;48.814;9.132;2023-02-12T07:37:45;7.07;;;6.40;;
677;SDS011;321;48.814;9.132;2023-02-12T07:40:11;10.83;;;6.30;;
677;SDS011;321;48.814;9.132;2023-02-12T07:42:37;7.43;;;6.87;;
677;SDS011;321;48.814;9.132;2023-02-12T07:45:02;13.93;;;6.10;;
677;SDS011;321;48.814;9.132;2023-02-12T07:47:28;7.10;;;6.43;;
677;SDS011;321;48.814;9.132;2023-02-12T07:49:54;7.50;;;6.80;;
677;SDS011;321;48.814;9.132;2023-02-12T07:52:19;4.77;;;4.40;;
677;SDS011;321;48.814;9.132;2023-02-12T07:54:45;7.87;;;5.73;;
677;SDS011;321;48.814;9.132;2023-02-12T07:57:11;7.75;;;6.85;;
677;SDS011;321;48.814;9.132;2023-02-12T07:59:37;12.87;;;9.03;;
677;SDS011;321;48.814;9.132;2023-02-12T08:02:02;5.27;;;4.87;;
677;SDS011;321;48.814;9.132;2023-02-12T08:04:28;7.90;;;6.87;;
677;SDS011;321;48.814;9.132;2023-02-12T08:06:54;11.97;;;6.67;;
677;SDS011;321;48.814;9.132;2023-02-12T08:09:21;8.82;;;7.93;;
677;SDS011;321;48.814;9.132;2023-02-12T08:11:49;12.35;;;6.55;;
677;SDS011;321;48.814;9.132;2023-02-12T08:14:16;5.20;;;4.70;;
677;SDS011;321;48.814;9.132;2023-02-12T08:16:43;8.35;;;6.43;;
677;SDS011;321;48.814;9.132;2023-02-12T08:19:10;8.52;;;7.22;;
677;SDS011;321;48.814;9.132;2023-02-12T08:21:37;8.25;;;5.82;;
677;SDS011;321;48.814;9.132;2023-02-12T08:24:02;8.87;;;6.73;;
677;SDS011;321;48.814;9.132;2023-02-12T08:26:29;11.30;;;7.22;;
677;SDS011;321;48.814;9.132;2023-02-12T08:29:04;7.87;;;6.73;;
677;SDS011;321;48.814;9.132;2023-02-12T08:31:33;9.13;;;8.10;;
677;SDS011;321;48.814;9.132;2023-02-12T08:34:00;10.77;;;6.57;;
677;SDS011;321;48.814;9.132;2023-02-12T08:36:27;10.20;;;6.63;;
677;SDS011;321;48.814;9.132;2023-02-12T08:39:03;7.18;;;6.47;;
677;SDS011;321;48.814;9.132;2023-02-12T08:41:30;7.20;;;6.50;;
677;SDS011;321;48.814;9.132;2023-02-12T08:43:57;9.03;;;6.83;;
677;SDS011;321;48.814;9.132;2023-02-12T08:46:25;7.70;;;6.30;;
677;SDS011;321;48.814;9.132;2023-02-12T08:48:54;7.82;;;6.65;;
677;SDS011;321;48.814;9.132;2023-02-12T08:51:23;7.40;;;6.77;;
677;SDS011;321;48.814;9.132;2023-02-12T08:53:54;10.10;;;7.28;;
677;SDS011;321;48.814;9.132;2023-02-12T08:56:21;4.88;;;4.50;;
677;SDS011;321;48.814;9.132;2023-02-12T08:58:48;9.43;;;7.32;;
677;SDS011;321;48.814;9.132;2023-02-12T09:01:19;9.00;;;8.10;;
677;SDS011;321;48.814;9.132;2023-02-12T09:03:46;9.02;;;7.55;;
677;SDS011;321;48.814;9.132;2023-02-12T09:06:12;18.25;;;8.32;;
677;SDS011;321;48.814;9.132;2023-02-12T09:08:38;10.70;;;9.73;;
677;SDS011;321;48.814;9.132;2023-02-12T09:14:03;9.35;;;7.88;;
677;SDS011;321;48.814;9.132;2023-02-12T09:16:30;8.37;;;7.37;;
677;SDS011;321;48.814;9.132;2023-02-12T09:18:58;13.23;;;7.77;;
677;SDS011;321;48.814;9.132;2023-02-12T09:21:23;8.63;;;7.00;;
677;SDS011;321;48.814;9.132;2023-02-12T09:23:50;10.33;;;7.80;;
677;SDS011;321;48.814;9.132;2023-02-12T09:26:17;12.50;;;8.63;;
677;SDS011;321;48.814;9.132;2023-02-12T09:28:45;8.63;;;7.17;;
677;SDS011;321;48.814;9.132;2023-02-12T09:31:12;12.35;;;8.80;;
677;SDS011;321;48.814;9.132;2023-02-12T09:33:40;13.45;;;9.85;;
677;SDS011;321;48.814;9.132;2023-02-12T09:36:07;17.50;;;7.78;;
677;SDS011;321;48.814;9.132;2023-02-12T09:38:35;9.60;;;5.87;;
677;SDS011;321;48.814;9.132;2023-02-12T09:49:20;10.50;;;6.57;;
677;SDS011;321;48.814;9.132;2023-02-12T09:52:02;9.43;;;7.88;;
677;SDS011;321;48.814;9.132;2023-02-12T09:54:33;8.00;;;6.30;;
677;SDS011;321;48.814;9.132;2023-02-12T09:57:04;9.30;;;8.40;;
677;SDS011;321;48.814;9.132;2023-02-12T09:59:40;6.43;;;5.63;;
677;SDS011;321;48.814;9.132;2023-02-12T10:02:13;7.33;;;6.40;;
677;SDS011;321;48.814;9.132;2023-02-12T10:04:41;9.07;;;7.03;;
677;SDS011;321;48.814;9.132;2023-02-12T10:12:39;7.93;;;7.25;;
677;SDS011;321;48.814;9.132;2023-02-12T10:21:28;6.60;;;6.03;;
677;SDS011;321;48.814;9.132;2023-02-12T10:26:57;10.30;;;6.47;;
677;SDS011;321;48.814;9.132;2023-02-12T10:29:31;7.10;;;6.40;;
677;SDS011;321;48.814;9.132;2023-02-12T10:32:02;11.93;;;6.13;;
677;SDS011;321;48.814;9.132;2023-02-12T10:34:34;5.13;;;4.63;;
677;SDS011;321;48.814;9.132;2023-02-12T10:37:20;5.37;;;4.80;;
677;SDS011;321;48.814;9.132;2023-02-12T10:40:05;4.83;;;4.33;;
677;SDS011;321;48.814;9.132;2023-02-12T10:42:47;5.40;;;4.90;;
677;SDS011;321;48.814;9.132;2023-02-12T10:45:16;27.37;;;5.60;;
677;SDS011;321;48.814;9.132;2023-02-12T10:47:45;6.60;;;5.90;;
677;SDS011;321;48.814;9.132;2023-02-12T10:50:15;6.53;;;5.87;;
677;SDS011;321;48.814;9.132;2023-02-12T10:53:04;7.20;;;4.40;;
677;SDS011;321;48.814;9.132;2023-02-12T10:55:35;6.40;;;5.80;;
677;SDS011;321;48.814;9.132;2023-02-12T10:58:02;5.13;;;4.17;;
677;SDS011;321;48.814;9.132;2023-02-12T11:00:29;10.53;;;4.10;;
677;SDS011;321;48.814;9.132;2023-02-12T11:05:35;5.63;;;4.93;;
677;SDS011;321;48.814;9.132;2023-02-12T11:08:02;16.60;;;5.67;;
677;SDS011;321;48.814;9.132;2023-02-12T11:10:35;5.20;;;4.53;;
677;SDS011;321;48.814;9.132;2023-02-12T11:13:03;7.40;;;5.13;;
677;SDS011;321;48.814;9.132;2023-02-12T11:15:31;7.80;;;4.87;;
677;SDS011;321;48.814;9.132;2023-02-12T11:18:03;4.57;;;3.73;;
677;SDS011;321;48.814;9.132;2023-02-12T11:23:03;6.60;;;3.93;;
677;SDS011;321;48.814;9.132;2023-02-12T11:25:31;3.77;;;3.33;;
677;SDS011;321;48.814;9.132;2023-02-12T11:30:28;4.77;;;3.23;;
677;SDS011;321;48.814;9.132;2023-02-12T11:32:54;4.47;;;2.63;;
677;SDS011;321;48.814;9.132;2023-02-12T11:35:38;5.00;;;2.60;;
677;SDS011;321;48.814;9.132;2023-02-12T11:38:33;4.73;;;2.10;;
677;SDS011;321;48.814;9.132;2023-02-12T11:41:13;3.57;;;2.60;;
677;SDS011;321;48.814;9.132;2023-02-12T11:43:47;2.57;;;2.37;;
677;SDS011;321;48.814;9.132;2023-02-12T11:46:20;7.33;;;3.10;;
677;SDS011;321;48.814;9.132;2023-02-12T11:48:48;2.73;;;2.53;;
677;SDS011;321;48.814;9.132;2023-02-12T11:51:26;3.92;;;3.10;;
677;SDS011;321;48.814;9.132;2023-02-12T11:53:54;2.07;;;1.63;;
677;SDS011;321;48.814;9.132;2023-02-12T11:56:23;3.83;;;2.20;;
677;SDS011;321;48.814;9.132;2023-02-12T11:58:49;3.23;;;2.33;;
677;SDS011;321;48.814;9.132;2023-02-12T12:01:23;2.10;;;1.90;;
677;SDS011;321;48.814;9.132;2023-02-12T12:04:03;2.10;;;1.87;;
677;SDS011;321;48.814;9.132;2023-02-12T12:06:35;4.07;;;2.50;;
677;SDS011;321;48.814;9.132;2023-02-12T12:14:15;2.70;;;1.70;;
677;SDS011;321;48.814;9.132;2023-02-12T12:19:44;3.73;;;1.70;;
677;SDS011;321;48.814;9.132;2023-02-12T12:22:42;1.70;;;1.20;;
677;SDS011;321;48.814;9.132;2023-02-12T12:25:23;9.10;;;2.83;;
677;SDS011;321;48.814;9.132;2023-02-12T12:28:21;2.23;;;1.57;;
677;SDS011;321;48.814;9.132;2023-02-12T12:30:57;2.47;;;2.27;;
677;SDS011;321;48.814;9.132;2023-02-12T12:38:55;4.67;;;1.80;;
677;SDS011;321;48.814;9.132;2023-02-12T13:00:55;3.63;;;2.37;;
677;SDS011;321;48.814;9.132;2023-02-12T13:06:45;2.77;;;1.90;;
677;SDS011;321;48.814;9.132;2023-02-12T13:09:38;3.53;;;1.53;;
677;SDS011;321;48.814;9.132;2023-02-12T13:14:56;3.37;;;1.67;;
677;SDS011;321;48.814;9.132;2023-02-12T13:23:27;2.67;;;2.03;;
677;SDS011;321;48.814;9.132;2023-02-12T13:26:14;2.90;;;2.27;;
677;SDS011;321;48.814;9.132;2023-02-12T13:31:49;2.20;;;2.00;;
677;SDS011;321;48.814;9.132;2023-02-12T13:34:22;5.20;;;1.77;;
677;SDS011;321;48.814;9.132;2023-02-12T13:36:52;2.30;;;1.70;;
677;SDS011;321;48.814;9.132;2023-02-12T13:45:00;3.20;;;2.30;;
677;SDS011;321;48.814;9.132;2023-02-12T13:50:30;1.80;;;1.23;;
677;SDS011;321;48.814;9.132;2023-02-12T13:58:58;1.33;;;0.85;;
677;SDS011;321;48.814;9.132;2023-02-12T14:04:21;2.50;;;2.30;;
677;SDS011;321;48.814;9.132;2023-02-12T14:06:58;3.53;;;2.93;;
677;SDS011;321;48.814;9.132;2023-02-12T14:09:44;2.17;;;1.30;;
677;SDS011;321;48.814;9.132;2023-02-12T14:15:04;3.70;;;2.13;;
677;SDS011;321;48.814;9.132;2023-02-12T14:20:06;1.43;;;0.90;;
677;SDS011;321;48.814;9.132;2023-02-12T14:27:52;3.00;;;1.43;;
677;SDS011;321;48.814;9.132;2023-02-12T14:30:35;3.35;;;1.80;;
677;SDS011;321;48.814;9.132;2023-02-12T14:35:35;1.60;;;1.07;;
677;SDS011;321;48.814;9.132;2023-02-12T14:46:45;1.20;;;0.70;;
677;SDS011;321;48.814;9.132;2023-02-12T14:53:59;2.40;;;1.17;;
677;SDS011;321;48.814;9.132;2023-02-12T14:56:28;2.17;;;1.27;;
677;SDS011;321;48.814;9.132;2023-02-12T14:59:01;1.30;;;0.67;;
677;SDS011;321;48.814;9.132;2023-02-12T15:01:29;2.40;;;1.17;;
677;SDS011;321;48.814;9.132;2023-02-12T15:03:58;1.43;;;0.90;;
677;SDS011;321;48.814;9.132;2023-02-12T15:09:45;2.57;;;1.50;;
677;SDS011;321;48.814;9.132;2023-02-12T15:14:50;1.40;;;0.90;;
677;SDS011;321;48.814;9.132;2023-02-12T15:17:40;1.67;;;0.80;;
677;SDS011;321;48.814;9.132;2023-02-12T15:20:19;1.43;;;0.73;;
677;SDS011;321;48.814;9.132;2023-02-12T15:22:47;3.30;;;1.63;;
677;SDS011;321;48.814;9.132;2023-02-12T15:25:23;1.40;;;0.97;;
677;SDS011;321;48.814;9.132;2023-02-12T15:27:58;1.57;;;1.07;;
677;SDS011;321;48.814;9.132;2023-02-12T15:30:31;1.40;;;0.87;;
677;SDS011;321;48.814;9.132;2023-02-12T15:33:00;1.17;;;0.70;;
677;SDS011;321;48.814;9.132;2023-02-12T15:35:30;2.33;;;1.20;;
677;SDS011;321;48.814;9.132;2023-02-12T15:37:57;1.40;;;0.90;;
677;SDS011;321;48.814;9.132;2023-02-12T15:40:27;2.63;;;0.77;;
677;SDS011;321;48.814;9.132;2023-02-12T15:42:58;1.67;;;1.50;;
677;SDS011;321;48.814;9.132;2023-02-12T15:45:32;1.53;;;0.87;;
677;SDS011;321;48.814;9.132;2023-02-12T15:48:01;1.50;;;1.10;;
677;SDS011;321;48.814;9.132;2023-02-12T15:50:46;1.90;;;1.70;;
677;SDS011;321;48.814;9.132;2023-02-12T15:53:15;1.37;;;1.17;;
677;SDS011;321;48.814;9.132;2023-02-12T15:55:42;1.63;;;1.20;;
677;SDS011;321;48.814;9.132;2023-02-12T15:58:18;2.27;;;0.97;;
677;SDS011;321;48.814;9.132;2023-02-12T16:00:53;1.20;;;0.60;;
677;SDS011;321;48.814;9.132;2023-02-12T16:03:24;1.17;;;0.70;;
677;SDS011;321;48.814;9.132;2023-02-12T16:05:52;1.30;;;0.77;;
677;SDS011;321;48.814;9.132;2023-02-12T16:08:21;1.77;;;1.60;;
677;SDS011;321;48.814;9.132;2023-02-12T16:10:48;1.50;;;0.88;;
677;SDS011;321;48.814;9.132;2023-02-12T16:13:22;1.40;;;0.93;;
677;SDS011;321;48.814;9.132;2023-02-12T16:16:04;1.47;;;0.70;;
677;SDS011;321;48.814;9.132;2023-02-12T16:18:37;1.50;;;1.13;;
677;SDS011;321;48.814;9.132;2023-02-12T16:21:10;2.45;;;1.20;;
677;SDS011;321;48.814;9.132;2023-02-12T16:23:45;1.50;;;1.23;;
677;SDS011;321;48.814;9.132;2023-02-12T16:26:17;1.90;;;0.90;;
677;SDS011;321;48.814;9.132;2023-02-12T16:28:45;6.03;;;0.93;;
677;SDS011;321;48.814;9.132;2023-02-12T16:31:13;1.60;;;1.00;;
677;SDS011;321;48.814;9.132;2023-02-12T16:36:14;1.60;;;0.90;;
677;SDS011;321;48.814;9.132;2023-02-12T16:38:50;1.70;;;1.30;;
677;SDS011;321;48.814;9.132;2023-02-12T16:46:25;1.90;;;1.47;;
677;SDS011;321;48.814;9.132;2023-02-12T16:48:52;1.83;;;1.23;;
677;SDS011;321;48.814;9.132;2023-02-12T16:51:24;1.10;;;0.53;;
677;SDS011;321;48.814;9.132;2023-02-12T16:53:58;1.20;;;0.63;;
677;SDS011;321;48.814;9.132;2023-02-12T16:56:26;1.30;;;0.83;;
677;SDS011;321;48.814;9.132;2023-02-12T16:58:58;1.17;;;0.73;;
677;SDS011;321;48.814;9.132;2023-02-12T17:01:26;1.60;;;0.70;;
677;SDS011;321;48.814;9.132;2023-02-12T17:03:54;1.30;;;1.03;;
677;SDS011;321;48.814;9.132;2023-02-12T17:06:22;1.50;;;1.23;;
677;SDS011;321;48.814;9.132;2023-02-12T17:08:52;1.30;;;0.83;;
677;SDS011;321;48.814;9.132;2023-02-12T17:11:27;1.50;;;1.20;;
677;SDS011;321;48.814;9.132;2023-02-12T17:13:53;2.85;;;0.85;;
677;SDS011;321;48.814;9.132;2023-02-12T17:16:19;1.60;;;1.40;;
677;SDS011;321;48.814;9.132;2023-02-12T17:18:45;1.73;;;1.13;;
677;SDS011;321;48.814;9.132;2023-02-12T17:23:51;1.42;;;0.85;;
677;SDS011;321;48.814;9.132;2023-02-12T17:26:20;2.50;;;1.48;;
677;SDS011;321;48.814;9.132;2023-02-12T17:28:46;1.63;;;1.20;;
677;SDS011;321;48.814;9.132;2023-02-12T17:31:12;1.50;;;0.90;;
677;SDS011;321;48.814;9.132;2023-02-12T17:33:38;1.30;;;0.97;;
677;SDS011;321;48.814;9.132;2023-02-12T17:36:03;3.37;;;1.60;;
677;SDS011;321;48.814;9.132;2023-02-12T17:38:29;3.80;;;1.60;;
677;SDS011;321;48.814;9.132;2023-02-12T17:40:55;2.97;;;2.13;;
677;SDS011;321;48.814;9.132;2023-02-12T17:43:21;1.63;;;1.33;;
677;SDS011;321;48.814;9.132;2023-02-12T17:45:47;2.07;;;1.87;;
677;SDS011;321;48.814;9.132;2023-02-12T17:48:13;1.40;;;1.17;;
677;SDS011;321;48.814;9.132;2023-02-12T17:50:40;2.17;;;1.50;;
677;SDS011;321;48.814;9.132;2023-02-12T17:53:07;4.55;;;3.08;;
677;SDS011;321;48.814;9.132;2023-02-12T17:55:36;1.83;;;1.70;;
677;SDS011;321;48.814;9.132;2023-02-12T17:58:03;2.28;;;1.67;;
677;SDS011;321;48.814;9.132;2023-02-12T18:00:29;2.97;;;2.60;;
677;SDS011;321;48.814;9.132;2023-02-12T18:02:54;1.67;;;1.43;;
677;SDS011;321;48.814;9.132;2023-02-12T18:05:20;2.40;;;2.20;;
677;SDS011;321;48.814;9.132;2023-02-12T18:07:46;2.40;;;2.20;;
677;SDS011;321;48.814;9.132;2023-02-12T18:10:12;2.00;;;1.60;;
677;SDS011;321;48.814;9.132;2023-02-12T18:12:37;2.13;;;1.87;;
677;SDS011;321;48.814;9.132;2023-02-12T18:15:04;2.73;;;2.37;;
677;SDS011;321;48.814;9.132;2023-02-12T18:17:31;6.30;;;3.22;;
677;SDS011;321;48.814;9.132;2023-02-12T18:19:57;2.17;;;1.97;;
677;SDS011;321;48.814;9.132;2023-02-12T18:22:22;2.10;;;1.73;;
677;SDS011;321;48.814;9.132;2023-02-12T18:24:48;4.43;;;1.90;;
677;SDS011;321;48.814;9.132;2023-02-12T18:27:14;5.03;;;2.70;;
677;SDS011;321;48.814;9.132;2023-02-12T18:29:40;1.73;;;1.42;;
677;SDS011;321;48.814;9.132;2023-02-12T18:32:06;2.13;;;1.93;;
677;SDS011;321;48.814;9.132;2023-02-12T18:34:32;2.30;;;1.52;;
677;SDS011;321;48.814;9.132;2023-02-12T18:36:58;3.47;;;3.10;;
677;SDS011;321;48.814;9.132;2023-02-12T18:39:24;8.43;;;1.98;;
677;SDS011;321;48.814;9.132;2023-02-12T18:41:50;2.70;;;1.10;;
677;SDS011;321;48.814;9.132;2023-02-12T18:44:16;1.50;;;1.10;;
677;SDS011;321;48.814;9.132;2023-02-12T18:46:41;1.30;;;1.03;;
677;SDS011;321;48.814;9.132;2023-02-12T18:49:08;4.25;;;3.88;;
677;SDS011;321;48.814;9.132;2023-02-12T18:51:35;2.60;;;2.17;;
677;SDS011;321;48.814;9.132;2023-02-12T18:54:04;4.45;;;1.77;;
677;SDS011;321;48.814;9.132;2023-02-12T18:56:32;2.28;;;1.90;;
677;SDS011;321;48.814;9.132;2023-02-12T18:59:00;2.50;;;1.13;;
677;SDS011;321;48.814;9.132;2023-02-12T19:01:28;1.52;;;1.13;;